sensor_id;sensor_type;location;lat;lon;timestamp;P1;durP1;ratioP1;P2;durP2;ratioP2
11498;SDS011;5806;48.748;9.278;2023-07-31T00:00:56;12.87;;;3.67;;
11498;SDS011;5806;48.748;9.278;2023-07-31T00:03:24;7.07;;;3.30;;
11498;SDS011;5806;48.748;9.278;2023-07-31T00:05:52;8.37;;;2.93;;
11498;SDS011;5806;48.748;9.278;2023-07-31T00:08:19;8.10;;;3.43;;
11498;SDS011;5806;48.748;9.278;2023-07-31T00:10:51;5.97;;;3.67;;
11498;SDS011;5806;48.748;9.278;2023-07-31T00:13:18;7.97;;;3.50;;
11498;SDS011;5806;48.748;9.278;2023-07-31T00:15:46;8.93;;;3.50;;
11498;SDS011;5806;48.748;9.278;2023-07-31T00:18:16;7.13;;;3.40;;
11498;SDS011;5806;48.748;9.278;2023-07-31T00:20:43;6.37;;;3.57;;
11498;SDS011;5806;48.748;9.278;2023-07-31T00:23:11;7.83;;;3.60;;
11498;SDS011;5806;48.748;9.278;2023-07-31T00:25:41;5.40;;;3.30;;
11498;SDS011;5806;48.748;9.278;2023-07-31T00:28:09;7.07;;;3.03;;
11498;SDS011;5806;48.748;9.278;2023-07-31T00:30:37;10.10;;;3.50;;
11498;SDS011;5806;48.748;9.278;2023-07-31T00:33:06;6.97;;;3.40;;
11498;SDS011;5806;48.748;9.278;2023-07-31T00:35:33;9.00;;;3.93;;
11498;SDS011;5806;48.748;9.278;2023-07-31T00:38:01;6.17;;;3.90;;
11498;SDS011;5806;48.748;9.278;2023-07-31T00:40:28;6.77;;;3.30;;
11498;SDS011;5806;48.748;9.278;2023-07-31T00:42:56;10.27;;;3.60;;
11498;SDS011;5806;48.748;9.278;2023-07-31T00:45:25;10.23;;;4.07;;
11498;SDS011;5806;48.748;9.278;2023-07-31T00:47:54;9.07;;;3.57;;
11498;SDS011;5806;48.748;9.278;2023-07-31T00:50:24;6.07;;;3.40;;
11498;SDS011;5806;48.748;9.278;2023-07-31T00:52:51;10.33;;;3.63;;
11498;SDS011;5806;48.748;9.278;2023-07-31T00:55:19;9.03;;;4.00;;
11498;SDS011;5806;48.748;9.278;2023-07-31T00:57:47;6.90;;;3.97;;
11498;SDS011;5806;48.748;9.278;2023-07-31T01:00:17;4.67;;;3.40;;
11498;SDS011;5806;48.748;9.278;2023-07-31T01:02:44;6.53;;;3.17;;
11498;SDS011;5806;48.748;9.278;2023-07-31T01:05:12;5.70;;;3.63;;
11498;SDS011;5806;48.748;9.278;2023-07-31T01:07:49;8.00;;;2.87;;
11498;SDS011;5806;48.748;9.278;2023-07-31T01:10:20;6.03;;;2.90;;
11498;SDS011;5806;48.748;9.278;2023-07-31T01:12:50;6.93;;;2.60;;
11498;SDS011;5806;48.748;9.278;2023-07-31T01:15:25;7.57;;;3.57;;
11498;SDS011;5806;48.748;9.278;2023-07-31T01:17:54;5.23;;;3.00;;
11498;SDS011;5806;48.748;9.278;2023-07-31T01:20:27;5.90;;;2.80;;
11498;SDS011;5806;48.748;9.278;2023-07-31T01:28:33;8.60;;;2.80;;
11498;SDS011;5806;48.748;9.278;2023-07-31T01:31:01;7.07;;;2.63;;
11498;SDS011;5806;48.748;9.278;2023-07-31T01:33:32;5.27;;;2.73;;
11498;SDS011;5806;48.748;9.278;2023-07-31T01:36:01;7.20;;;3.00;;
11498;SDS011;5806;48.748;9.278;2023-07-31T01:38:30;10.20;;;2.83;;
11498;SDS011;5806;48.748;9.278;2023-07-31T01:40:57;7.10;;;3.30;;
11498;SDS011;5806;48.748;9.278;2023-07-31T01:43:25;7.47;;;2.97;;
11498;SDS011;5806;48.748;9.278;2023-07-31T01:45:52;7.63;;;3.17;;
11498;SDS011;5806;48.748;9.278;2023-07-31T01:48:20;4.17;;;2.73;;
11498;SDS011;5806;48.748;9.278;2023-07-31T01:50:48;15.10;;;3.90;;
11498;SDS011;5806;48.748;9.278;2023-07-31T01:53:16;6.43;;;2.77;;
11498;SDS011;5806;48.748;9.278;2023-07-31T01:55:44;8.10;;;3.13;;
11498;SDS011;5806;48.748;9.278;2023-07-31T01:58:11;5.03;;;2.33;;
11498;SDS011;5806;48.748;9.278;2023-07-31T02:00:39;8.30;;;2.97;;
11498;SDS011;5806;48.748;9.278;2023-07-31T02:03:07;8.10;;;3.47;;
11498;SDS011;5806;48.748;9.278;2023-07-31T02:05:34;7.57;;;3.17;;
11498;SDS011;5806;48.748;9.278;2023-07-31T02:08:06;8.67;;;3.43;;
11498;SDS011;5806;48.748;9.278;2023-07-31T02:10:34;8.07;;;3.67;;
11498;SDS011;5806;48.748;9.278;2023-07-31T02:13:01;6.83;;;2.63;;
11498;SDS011;5806;48.748;9.278;2023-07-31T02:15:30;6.27;;;3.33;;
11498;SDS011;5806;48.748;9.278;2023-07-31T02:17:59;6.43;;;2.90;;
11498;SDS011;5806;48.748;9.278;2023-07-31T02:20:27;4.93;;;2.67;;
11498;SDS011;5806;48.748;9.278;2023-07-31T02:22:56;5.40;;;3.10;;
11498;SDS011;5806;48.748;9.278;2023-07-31T02:25:24;6.83;;;3.00;;
11498;SDS011;5806;48.748;9.278;2023-07-31T02:27:51;5.27;;;2.90;;
11498;SDS011;5806;48.748;9.278;2023-07-31T02:30:19;6.90;;;3.20;;
11498;SDS011;5806;48.748;9.278;2023-07-31T02:32:46;3.37;;;2.40;;
11498;SDS011;5806;48.748;9.278;2023-07-31T02:35:16;6.90;;;2.63;;
11498;SDS011;5806;48.748;9.278;2023-07-31T02:37:44;8.60;;;3.17;;
11498;SDS011;5806;48.748;9.278;2023-07-31T02:40:11;8.70;;;3.20;;
11498;SDS011;5806;48.748;9.278;2023-07-31T02:42:39;6.47;;;3.20;;
11498;SDS011;5806;48.748;9.278;2023-07-31T02:45:07;7.47;;;3.50;;
11498;SDS011;5806;48.748;9.278;2023-07-31T02:47:36;9.33;;;2.90;;
11498;SDS011;5806;48.748;9.278;2023-07-31T02:50:04;6.37;;;2.97;;
11498;SDS011;5806;48.748;9.278;2023-07-31T02:52:31;6.07;;;3.10;;
11498;SDS011;5806;48.748;9.278;2023-07-31T02:54:59;6.27;;;3.27;;
11498;SDS011;5806;48.748;9.278;2023-07-31T02:57:28;5.07;;;2.73;;
11498;SDS011;5806;48.748;9.278;2023-07-31T02:59:55;7.40;;;3.27;;
11498;SDS011;5806;48.748;9.278;2023-07-31T03:02:23;8.27;;;3.27;;
11498;SDS011;5806;48.748;9.278;2023-07-31T03:04:50;6.60;;;3.10;;
11498;SDS011;5806;48.748;9.278;2023-07-31T03:07:18;6.90;;;2.97;;
11498;SDS011;5806;48.748;9.278;2023-07-31T03:09:45;6.47;;;2.90;;
11498;SDS011;5806;48.748;9.278;2023-07-31T03:12:13;12.33;;;3.63;;
11498;SDS011;5806;48.748;9.278;2023-07-31T03:14:40;5.57;;;3.47;;
11498;SDS011;5806;48.748;9.278;2023-07-31T03:17:08;7.90;;;3.47;;
11498;SDS011;5806;48.748;9.278;2023-07-31T03:19:35;7.27;;;3.33;;
11498;SDS011;5806;48.748;9.278;2023-07-31T03:22:03;7.43;;;3.10;;
11498;SDS011;5806;48.748;9.278;2023-07-31T03:24:31;8.37;;;3.70;;
11498;SDS011;5806;48.748;9.278;2023-07-31T03:26:58;7.23;;;2.87;;
11498;SDS011;5806;48.748;9.278;2023-07-31T03:29:26;6.03;;;3.27;;
11498;SDS011;5806;48.748;9.278;2023-07-31T03:31:53;5.13;;;2.93;;
11498;SDS011;5806;48.748;9.278;2023-07-31T03:34:21;7.80;;;3.37;;
11498;SDS011;5806;48.748;9.278;2023-07-31T03:36:49;8.73;;;3.47;;
11498;SDS011;5806;48.748;9.278;2023-07-31T03:39:16;8.20;;;3.47;;
11498;SDS011;5806;48.748;9.278;2023-07-31T03:41:44;7.27;;;2.87;;
11498;SDS011;5806;48.748;9.278;2023-07-31T03:44:12;7.33;;;3.50;;
11498;SDS011;5806;48.748;9.278;2023-07-31T03:46:39;12.83;;;4.20;;
11498;SDS011;5806;48.748;9.278;2023-07-31T03:49:07;8.87;;;3.20;;
11498;SDS011;5806;48.748;9.278;2023-07-31T03:51:35;9.13;;;3.70;;
11498;SDS011;5806;48.748;9.278;2023-07-31T03:54:02;8.43;;;3.00;;
11498;SDS011;5806;48.748;9.278;2023-07-31T03:56:30;8.80;;;4.07;;
11498;SDS011;5806;48.748;9.278;2023-07-31T03:58:57;8.00;;;3.00;;
11498;SDS011;5806;48.748;9.278;2023-07-31T04:01:25;8.67;;;3.83;;
11498;SDS011;5806;48.748;9.278;2023-07-31T04:03:55;7.73;;;3.50;;
11498;SDS011;5806;48.748;9.278;2023-07-31T04:06:22;8.40;;;3.30;;
11498;SDS011;5806;48.748;9.278;2023-07-31T04:08:49;10.33;;;3.73;;
11498;SDS011;5806;48.748;9.278;2023-07-31T04:11:17;8.93;;;3.83;;
11498;SDS011;5806;48.748;9.278;2023-07-31T04:13:45;8.53;;;4.00;;
11498;SDS011;5806;48.748;9.278;2023-07-31T04:16:12;9.00;;;3.87;;
11498;SDS011;5806;48.748;9.278;2023-07-31T04:18:39;9.57;;;4.20;;
11498;SDS011;5806;48.748;9.278;2023-07-31T04:21:07;8.27;;;4.07;;
11498;SDS011;5806;48.748;9.278;2023-07-31T04:23:35;8.27;;;4.00;;
11498;SDS011;5806;48.748;9.278;2023-07-31T04:26:03;11.13;;;4.10;;
11498;SDS011;5806;48.748;9.278;2023-07-31T04:28:30;9.13;;;4.53;;
11498;SDS011;5806;48.748;9.278;2023-07-31T04:30:59;8.23;;;3.77;;
11498;SDS011;5806;48.748;9.278;2023-07-31T04:33:27;8.80;;;4.17;;
11498;SDS011;5806;48.748;9.278;2023-07-31T04:35:54;7.87;;;3.90;;
11498;SDS011;5806;48.748;9.278;2023-07-31T04:38:22;8.50;;;4.27;;
11498;SDS011;5806;48.748;9.278;2023-07-31T04:40:49;8.47;;;3.90;;
11498;SDS011;5806;48.748;9.278;2023-07-31T04:43:18;6.80;;;3.97;;
11498;SDS011;5806;48.748;9.278;2023-07-31T04:45:46;6.60;;;4.07;;
11498;SDS011;5806;48.748;9.278;2023-07-31T04:48:14;9.90;;;4.10;;
11498;SDS011;5806;48.748;9.278;2023-07-31T04:50:41;5.07;;;3.87;;
11498;SDS011;5806;48.748;9.278;2023-07-31T04:53:09;7.90;;;4.23;;
11498;SDS011;5806;48.748;9.278;2023-07-31T04:55:37;8.10;;;4.40;;
11498;SDS011;5806;48.748;9.278;2023-07-31T04:58:05;8.03;;;4.53;;
11498;SDS011;5806;48.748;9.278;2023-07-31T05:00:32;7.27;;;4.30;;
11498;SDS011;5806;48.748;9.278;2023-07-31T05:03:00;9.00;;;4.13;;
11498;SDS011;5806;48.748;9.278;2023-07-31T05:05:27;8.53;;;4.07;;
11498;SDS011;5806;48.748;9.278;2023-07-31T05:07:55;9.20;;;4.47;;
11498;SDS011;5806;48.748;9.278;2023-07-31T05:10:22;12.67;;;3.87;;
11498;SDS011;5806;48.748;9.278;2023-07-31T05:12:50;8.23;;;4.17;;
11498;SDS011;5806;48.748;9.278;2023-07-31T05:15:17;6.70;;;3.73;;
11498;SDS011;5806;48.748;9.278;2023-07-31T05:17:45;7.90;;;3.77;;
11498;SDS011;5806;48.748;9.278;2023-07-31T05:20:12;5.97;;;3.60;;
11498;SDS011;5806;48.748;9.278;2023-07-31T05:22:40;7.43;;;4.50;;
11498;SDS011;5806;48.748;9.278;2023-07-31T05:25:08;7.07;;;3.87;;
11498;SDS011;5806;48.748;9.278;2023-07-31T05:27:35;6.90;;;3.40;;
11498;SDS011;5806;48.748;9.278;2023-07-31T05:30:03;8.83;;;4.47;;
11498;SDS011;5806;48.748;9.278;2023-07-31T05:32:31;7.77;;;3.37;;
11498;SDS011;5806;48.748;9.278;2023-07-31T05:34:59;8.53;;;3.57;;
11498;SDS011;5806;48.748;9.278;2023-07-31T05:37:27;9.93;;;3.73;;
11498;SDS011;5806;48.748;9.278;2023-07-31T05:39:54;6.87;;;4.10;;
11498;SDS011;5806;48.748;9.278;2023-07-31T05:42:22;7.80;;;3.70;;
11498;SDS011;5806;48.748;9.278;2023-07-31T05:44:51;7.60;;;3.63;;
11498;SDS011;5806;48.748;9.278;2023-07-31T05:47:18;9.57;;;4.53;;
11498;SDS011;5806;48.748;9.278;2023-07-31T05:49:46;6.20;;;3.83;;
11498;SDS011;5806;48.748;9.278;2023-07-31T05:52:15;8.30;;;3.73;;
11498;SDS011;5806;48.748;9.278;2023-07-31T05:54:42;7.50;;;3.47;;
11498;SDS011;5806;48.748;9.278;2023-07-31T05:57:11;7.70;;;4.30;;
11498;SDS011;5806;48.748;9.278;2023-07-31T05:59:39;7.03;;;4.07;;
11498;SDS011;5806;48.748;9.278;2023-07-31T06:02:06;7.00;;;3.87;;
11498;SDS011;5806;48.748;9.278;2023-07-31T06:04:34;7.43;;;4.13;;
11498;SDS011;5806;48.748;9.278;2023-07-31T06:07:01;6.30;;;3.30;;
11498;SDS011;5806;48.748;9.278;2023-07-31T06:09:32;8.40;;;3.40;;
11498;SDS011;5806;48.748;9.278;2023-07-31T06:11:59;6.23;;;3.60;;
11498;SDS011;5806;48.748;9.278;2023-07-31T06:14:27;7.07;;;4.30;;
11498;SDS011;5806;48.748;9.278;2023-07-31T06:16:54;5.80;;;4.17;;
11498;SDS011;5806;48.748;9.278;2023-07-31T06:19:22;9.00;;;4.27;;
11498;SDS011;5806;48.748;9.278;2023-07-31T06:21:49;9.70;;;4.27;;
11498;SDS011;5806;48.748;9.278;2023-07-31T06:24:16;8.03;;;4.10;;
11498;SDS011;5806;48.748;9.278;2023-07-31T06:26:46;6.47;;;4.07;;
11498;SDS011;5806;48.748;9.278;2023-07-31T06:29:13;6.50;;;3.93;;
11498;SDS011;5806;48.748;9.278;2023-07-31T06:31:40;6.33;;;4.03;;
11498;SDS011;5806;48.748;9.278;2023-07-31T06:34:08;8.80;;;4.20;;
11498;SDS011;5806;48.748;9.278;2023-07-31T06:36:35;9.47;;;4.90;;
11498;SDS011;5806;48.748;9.278;2023-07-31T06:39:03;7.13;;;4.20;;
11498;SDS011;5806;48.748;9.278;2023-07-31T06:41:30;7.03;;;4.33;;
11498;SDS011;5806;48.748;9.278;2023-07-31T06:43:57;7.50;;;4.07;;
11498;SDS011;5806;48.748;9.278;2023-07-31T06:46:25;8.03;;;4.70;;
11498;SDS011;5806;48.748;9.278;2023-07-31T06:48:52;9.87;;;4.73;;
11498;SDS011;5806;48.748;9.278;2023-07-31T06:51:20;8.03;;;4.80;;
11498;SDS011;5806;48.748;9.278;2023-07-31T06:53:48;6.40;;;4.10;;
11498;SDS011;5806;48.748;9.278;2023-07-31T06:56:15;8.67;;;4.63;;
11498;SDS011;5806;48.748;9.278;2023-07-31T06:58:42;7.90;;;4.20;;
11498;SDS011;5806;48.748;9.278;2023-07-31T07:01:10;9.17;;;4.57;;
11498;SDS011;5806;48.748;9.278;2023-07-31T07:03:37;7.00;;;4.20;;
11498;SDS011;5806;48.748;9.278;2023-07-31T07:06:05;10.00;;;4.53;;
11498;SDS011;5806;48.748;9.278;2023-07-31T07:08:32;8.20;;;4.67;;
11498;SDS011;5806;48.748;9.278;2023-07-31T07:11:00;8.07;;;4.47;;
11498;SDS011;5806;48.748;9.278;2023-07-31T07:13:27;10.40;;;4.00;;
11498;SDS011;5806;48.748;9.278;2023-07-31T07:15:55;9.47;;;4.53;;
11498;SDS011;5806;48.748;9.278;2023-07-31T07:18:22;7.50;;;4.07;;
11498;SDS011;5806;48.748;9.278;2023-07-31T07:20:50;8.67;;;4.33;;
11498;SDS011;5806;48.748;9.278;2023-07-31T07:23:19;8.43;;;4.50;;
11498;SDS011;5806;48.748;9.278;2023-07-31T07:25:47;7.47;;;4.23;;
11498;SDS011;5806;48.748;9.278;2023-07-31T07:28:15;8.67;;;4.00;;
11498;SDS011;5806;48.748;9.278;2023-07-31T07:30:42;8.63;;;4.47;;
11498;SDS011;5806;48.748;9.278;2023-07-31T07:33:10;6.93;;;4.10;;
11498;SDS011;5806;48.748;9.278;2023-07-31T07:35:38;8.30;;;4.30;;
11498;SDS011;5806;48.748;9.278;2023-07-31T07:38:05;9.07;;;4.47;;
11498;SDS011;5806;48.748;9.278;2023-07-31T07:40:33;8.83;;;4.30;;
11498;SDS011;5806;48.748;9.278;2023-07-31T07:43:05;7.10;;;4.93;;
11498;SDS011;5806;48.748;9.278;2023-07-31T07:45:33;7.60;;;4.17;;
11498;SDS011;5806;48.748;9.278;2023-07-31T07:48:01;8.97;;;4.93;;
11498;SDS011;5806;48.748;9.278;2023-07-31T07:50:29;7.33;;;4.37;;
11498;SDS011;5806;48.748;9.278;2023-07-31T07:52:56;10.13;;;4.67;;
11498;SDS011;5806;48.748;9.278;2023-07-31T07:55:24;8.23;;;5.17;;
11498;SDS011;5806;48.748;9.278;2023-07-31T07:57:51;11.30;;;4.40;;
11498;SDS011;5806;48.748;9.278;2023-07-31T08:00:19;8.93;;;5.03;;
11498;SDS011;5806;48.748;9.278;2023-07-31T08:02:46;9.27;;;4.50;;
11498;SDS011;5806;48.748;9.278;2023-07-31T08:05:14;12.07;;;5.00;;
11498;SDS011;5806;48.748;9.278;2023-07-31T08:07:43;8.57;;;4.80;;
11498;SDS011;5806;48.748;9.278;2023-07-31T08:10:10;9.33;;;5.10;;
11498;SDS011;5806;48.748;9.278;2023-07-31T08:12:38;8.07;;;4.63;;
11498;SDS011;5806;48.748;9.278;2023-07-31T08:15:05;9.50;;;5.03;;
11498;SDS011;5806;48.748;9.278;2023-07-31T08:17:33;6.13;;;4.53;;
11498;SDS011;5806;48.748;9.278;2023-07-31T08:20:01;6.67;;;3.90;;
11498;SDS011;5806;48.748;9.278;2023-07-31T08:22:28;6.27;;;4.10;;
11498;SDS011;5806;48.748;9.278;2023-07-31T08:24:56;9.47;;;4.63;;
11498;SDS011;5806;48.748;9.278;2023-07-31T08:27:23;7.57;;;4.47;;
11498;SDS011;5806;48.748;9.278;2023-07-31T08:29:51;8.33;;;4.13;;
11498;SDS011;5806;48.748;9.278;2023-07-31T08:32:19;8.43;;;4.43;;
11498;SDS011;5806;48.748;9.278;2023-07-31T08:34:46;7.37;;;3.93;;
11498;SDS011;5806;48.748;9.278;2023-07-31T08:37:14;8.50;;;5.07;;
11498;SDS011;5806;48.748;9.278;2023-07-31T08:39:42;7.50;;;4.97;;
11498;SDS011;5806;48.748;9.278;2023-07-31T08:42:09;6.00;;;4.00;;
11498;SDS011;5806;48.748;9.278;2023-07-31T08:44:41;7.07;;;3.97;;
11498;SDS011;5806;48.748;9.278;2023-07-31T08:47:17;7.43;;;3.93;;
11498;SDS011;5806;48.748;9.278;2023-07-31T08:49:53;7.30;;;4.00;;
11498;SDS011;5806;48.748;9.278;2023-07-31T08:52:37;5.60;;;3.93;;
11498;SDS011;5806;48.748;9.278;2023-07-31T08:55:14;7.10;;;4.60;;
11498;SDS011;5806;48.748;9.278;2023-07-31T08:57:53;5.77;;;4.30;;
11498;SDS011;5806;48.748;9.278;2023-07-31T09:00:34;5.63;;;4.10;;
11498;SDS011;5806;48.748;9.278;2023-07-31T09:03:20;9.20;;;4.50;;
11498;SDS011;5806;48.748;9.278;2023-07-31T09:08:33;7.47;;;4.47;;
11498;SDS011;5806;48.748;9.278;2023-07-31T09:11:15;7.33;;;3.80;;
11498;SDS011;5806;48.748;9.278;2023-07-31T09:13:57;4.80;;;3.70;;
11498;SDS011;5806;48.748;9.278;2023-07-31T09:16:55;6.80;;;4.47;;
11498;SDS011;5806;48.748;9.278;2023-07-31T09:19:49;7.67;;;4.23;;
11498;SDS011;5806;48.748;9.278;2023-07-31T09:25:43;9.70;;;5.33;;
11498;SDS011;5806;48.748;9.278;2023-07-31T09:28:13;6.47;;;4.70;;
11498;SDS011;5806;48.748;9.278;2023-07-31T09:30:48;5.37;;;3.13;;
11498;SDS011;5806;48.748;9.278;2023-07-31T09:33:17;6.63;;;3.40;;
11498;SDS011;5806;48.748;9.278;2023-07-31T09:35:51;5.83;;;3.50;;
11498;SDS011;5806;48.748;9.278;2023-07-31T09:38:19;5.37;;;3.50;;
11498;SDS011;5806;48.748;9.278;2023-07-31T09:40:47;6.87;;;3.37;;
11498;SDS011;5806;48.748;9.278;2023-07-31T09:43:32;6.63;;;2.90;;
11498;SDS011;5806;48.748;9.278;2023-07-31T09:46:04;7.40;;;3.57;;
11498;SDS011;5806;48.748;9.278;2023-07-31T09:48:38;5.23;;;3.33;;
11498;SDS011;5806;48.748;9.278;2023-07-31T09:51:05;3.40;;;2.90;;
11498;SDS011;5806;48.748;9.278;2023-07-31T09:53:34;4.47;;;3.57;;
11498;SDS011;5806;48.748;9.278;2023-07-31T09:56:02;5.20;;;3.03;;
11498;SDS011;5806;48.748;9.278;2023-07-31T09:58:31;4.50;;;3.10;;
11498;SDS011;5806;48.748;9.278;2023-07-31T10:01:02;5.50;;;3.30;;
11498;SDS011;5806;48.748;9.278;2023-07-31T10:03:29;4.70;;;3.37;;
11498;SDS011;5806;48.748;9.278;2023-07-31T10:05:58;5.23;;;3.40;;
11498;SDS011;5806;48.748;9.278;2023-07-31T10:08:30;7.07;;;3.33;;
11498;SDS011;5806;48.748;9.278;2023-07-31T10:10:59;7.13;;;4.00;;
11498;SDS011;5806;48.748;9.278;2023-07-31T10:13:28;7.53;;;3.90;;
11498;SDS011;5806;48.748;9.278;2023-07-31T10:15:58;6.53;;;4.00;;
11498;SDS011;5806;48.748;9.278;2023-07-31T10:18:26;6.73;;;3.70;;
11498;SDS011;5806;48.748;9.278;2023-07-31T10:20:54;9.50;;;4.50;;
11498;SDS011;5806;48.748;9.278;2023-07-31T10:23:23;7.60;;;4.73;;
11498;SDS011;5806;48.748;9.278;2023-07-31T10:25:51;8.20;;;4.30;;
11498;SDS011;5806;48.748;9.278;2023-07-31T10:28:20;8.07;;;4.43;;
11498;SDS011;5806;48.748;9.278;2023-07-31T10:30:47;10.63;;;4.83;;
11498;SDS011;5806;48.748;9.278;2023-07-31T10:33:17;8.83;;;4.73;;
11498;SDS011;5806;48.748;9.278;2023-07-31T10:35:46;8.27;;;4.73;;
11498;SDS011;5806;48.748;9.278;2023-07-31T10:38:14;10.07;;;4.80;;
11498;SDS011;5806;48.748;9.278;2023-07-31T10:40:42;6.00;;;4.53;;
11498;SDS011;5806;48.748;9.278;2023-07-31T10:43:23;12.37;;;5.20;;
11498;SDS011;5806;48.748;9.278;2023-07-31T10:45:47;8.13;;;4.57;;
11498;SDS011;5806;48.748;9.278;2023-07-31T10:48:16;7.80;;;3.87;;
11498;SDS011;5806;48.748;9.278;2023-07-31T10:50:47;7.60;;;3.97;;
11498;SDS011;5806;48.748;9.278;2023-07-31T10:53:22;8.77;;;5.27;;
11498;SDS011;5806;48.748;9.278;2023-07-31T10:55:57;6.07;;;3.83;;
11498;SDS011;5806;48.748;9.278;2023-07-31T10:58:26;9.07;;;4.47;;
11498;SDS011;5806;48.748;9.278;2023-07-31T11:00:58;7.63;;;4.20;;
11498;SDS011;5806;48.748;9.278;2023-07-31T11:03:27;7.93;;;4.30;;
11498;SDS011;5806;48.748;9.278;2023-07-31T11:06:02;7.17;;;3.53;;
11498;SDS011;5806;48.748;9.278;2023-07-31T11:08:31;7.60;;;4.80;;
11498;SDS011;5806;48.748;9.278;2023-07-31T11:13:33;8.10;;;4.70;;
11498;SDS011;5806;48.748;9.278;2023-07-31T11:16:14;5.33;;;3.80;;
11498;SDS011;5806;48.748;9.278;2023-07-31T11:18:44;5.03;;;3.83;;
11498;SDS011;5806;48.748;9.278;2023-07-31T11:21:14;7.00;;;2.90;;
11498;SDS011;5806;48.748;9.278;2023-07-31T11:23:47;7.30;;;3.40;;
11498;SDS011;5806;48.748;9.278;2023-07-31T11:26:16;3.77;;;2.10;;
11498;SDS011;5806;48.748;9.278;2023-07-31T11:28:47;3.30;;;2.03;;
11498;SDS011;5806;48.748;9.278;2023-07-31T11:31:16;4.13;;;2.10;;
11498;SDS011;5806;48.748;9.278;2023-07-31T11:33:46;5.07;;;2.10;;
11498;SDS011;5806;48.748;9.278;2023-07-31T11:36:14;3.10;;;1.83;;
11498;SDS011;5806;48.748;9.278;2023-07-31T11:38:44;3.17;;;2.00;;
11498;SDS011;5806;48.748;9.278;2023-07-31T11:41:13;4.77;;;2.40;;
11498;SDS011;5806;48.748;9.278;2023-07-31T11:43:42;5.30;;;2.20;;
11498;SDS011;5806;48.748;9.278;2023-07-31T11:46:09;2.60;;;1.90;;
11498;SDS011;5806;48.748;9.278;2023-07-31T11:48:37;3.50;;;1.60;;
11498;SDS011;5806;48.748;9.278;2023-07-31T11:51:08;2.93;;;1.90;;
11498;SDS011;5806;48.748;9.278;2023-07-31T11:53:38;3.63;;;1.37;;
11498;SDS011;5806;48.748;9.278;2023-07-31T11:56:13;2.33;;;1.70;;
11498;SDS011;5806;48.748;9.278;2023-07-31T11:58:43;1.83;;;1.40;;
11498;SDS011;5806;48.748;9.278;2023-07-31T12:01:19;4.67;;;1.67;;
11498;SDS011;5806;48.748;9.278;2023-07-31T12:03:43;1.47;;;1.17;;
11498;SDS011;5806;48.748;9.278;2023-07-31T12:06:12;1.50;;;1.10;;
11498;SDS011;5806;48.748;9.278;2023-07-31T12:08:39;2.50;;;1.27;;
11498;SDS011;5806;48.748;9.278;2023-07-31T12:11:08;2.93;;;1.20;;
11498;SDS011;5806;48.748;9.278;2023-07-31T12:13:36;0.87;;;0.80;;
11498;SDS011;5806;48.748;9.278;2023-07-31T12:16:03;2.00;;;1.13;;
11498;SDS011;5806;48.748;9.278;2023-07-31T12:18:35;1.87;;;1.00;;
11498;SDS011;5806;48.748;9.278;2023-07-31T12:21:04;1.47;;;1.00;;
11498;SDS011;5806;48.748;9.278;2023-07-31T12:23:34;1.57;;;0.93;;
11498;SDS011;5806;48.748;9.278;2023-07-31T12:26:03;2.13;;;1.00;;
11498;SDS011;5806;48.748;9.278;2023-07-31T12:28:54;1.00;;;0.73;;
11498;SDS011;5806;48.748;9.278;2023-07-31T12:31:14;0.90;;;0.80;;
11498;SDS011;5806;48.748;9.278;2023-07-31T12:33:39;2.13;;;0.90;;
11498;SDS011;5806;48.748;9.278;2023-07-31T12:36:08;1.63;;;0.80;;
11498;SDS011;5806;48.748;9.278;2023-07-31T12:38:38;2.63;;;0.97;;
11498;SDS011;5806;48.748;9.278;2023-07-31T12:41:05;2.00;;;0.80;;
11498;SDS011;5806;48.748;9.278;2023-07-31T12:43:33;1.03;;;0.93;;
11498;SDS011;5806;48.748;9.278;2023-07-31T12:46:01;2.87;;;1.20;;
11498;SDS011;5806;48.748;9.278;2023-07-31T12:48:29;1.50;;;1.00;;
11498;SDS011;5806;48.748;9.278;2023-07-31T12:50:57;1.70;;;1.10;;
11498;SDS011;5806;48.748;9.278;2023-07-31T12:53:25;1.20;;;1.10;;
11498;SDS011;5806;48.748;9.278;2023-07-31T12:55:52;2.00;;;1.57;;
11498;SDS011;5806;48.748;9.278;2023-07-31T12:58:20;1.10;;;1.00;;
11498;SDS011;5806;48.748;9.278;2023-07-31T13:00:47;1.73;;;1.47;;
11498;SDS011;5806;48.748;9.278;2023-07-31T13:03:14;1.93;;;1.73;;
11498;SDS011;5806;48.748;9.278;2023-07-31T13:05:42;2.13;;;1.67;;
11498;SDS011;5806;48.748;9.278;2023-07-31T13:08:09;1.50;;;1.30;;
11498;SDS011;5806;48.748;9.278;2023-07-31T13:10:37;2.97;;;1.53;;
11498;SDS011;5806;48.748;9.278;2023-07-31T13:13:05;1.70;;;1.60;;
11498;SDS011;5806;48.748;9.278;2023-07-31T13:15:32;2.37;;;1.60;;
11498;SDS011;5806;48.748;9.278;2023-07-31T13:17:59;3.13;;;1.87;;
11498;SDS011;5806;48.748;9.278;2023-07-31T13:20:27;3.00;;;1.90;;
11498;SDS011;5806;48.748;9.278;2023-07-31T13:22:54;2.27;;;1.97;;
11498;SDS011;5806;48.748;9.278;2023-07-31T13:25:22;3.17;;;2.23;;
11498;SDS011;5806;48.748;9.278;2023-07-31T13:27:49;2.70;;;2.30;;
11498;SDS011;5806;48.748;9.278;2023-07-31T13:30:17;3.27;;;2.20;;
11498;SDS011;5806;48.748;9.278;2023-07-31T13:32:44;5.17;;;2.43;;
11498;SDS011;5806;48.748;9.278;2023-07-31T13:35:11;2.93;;;2.17;;
11498;SDS011;5806;48.748;9.278;2023-07-31T13:37:39;2.97;;;2.57;;
11498;SDS011;5806;48.748;9.278;2023-07-31T13:40:06;3.83;;;2.70;;
11498;SDS011;5806;48.748;9.278;2023-07-31T13:42:34;3.80;;;2.50;;
11498;SDS011;5806;48.748;9.278;2023-07-31T13:45:02;3.20;;;2.30;;
11498;SDS011;5806;48.748;9.278;2023-07-31T13:47:29;3.03;;;2.60;;
11498;SDS011;5806;48.748;9.278;2023-07-31T13:49:57;3.50;;;2.43;;
11498;SDS011;5806;48.748;9.278;2023-07-31T13:52:25;3.60;;;2.40;;
11498;SDS011;5806;48.748;9.278;2023-07-31T13:54:52;3.53;;;2.67;;
11498;SDS011;5806;48.748;9.278;2023-07-31T13:57:19;4.80;;;2.80;;
11498;SDS011;5806;48.748;9.278;2023-07-31T13:59:47;2.53;;;2.10;;
11498;SDS011;5806;48.748;9.278;2023-07-31T14:02:14;4.33;;;3.00;;
11498;SDS011;5806;48.748;9.278;2023-07-31T14:04:42;3.93;;;2.57;;
11498;SDS011;5806;48.748;9.278;2023-07-31T14:07:09;3.80;;;2.57;;
11498;SDS011;5806;48.748;9.278;2023-07-31T14:09:37;4.77;;;2.67;;
11498;SDS011;5806;48.748;9.278;2023-07-31T14:12:04;3.90;;;2.20;;
11498;SDS011;5806;48.748;9.278;2023-07-31T14:14:32;2.27;;;2.07;;
11498;SDS011;5806;48.748;9.278;2023-07-31T14:16:59;4.00;;;2.40;;
11498;SDS011;5806;48.748;9.278;2023-07-31T14:19:27;3.17;;;2.37;;
11498;SDS011;5806;48.748;9.278;2023-07-31T14:21:54;3.70;;;2.60;;
11498;SDS011;5806;48.748;9.278;2023-07-31T14:24:22;3.00;;;2.60;;
11498;SDS011;5806;48.748;9.278;2023-07-31T14:26:49;4.93;;;2.27;;
11498;SDS011;5806;48.748;9.278;2023-07-31T14:29:17;2.77;;;2.47;;
11498;SDS011;5806;48.748;9.278;2023-07-31T14:31:44;3.30;;;2.40;;
11498;SDS011;5806;48.748;9.278;2023-07-31T14:34:12;4.67;;;2.40;;
11498;SDS011;5806;48.748;9.278;2023-07-31T14:36:39;3.73;;;2.00;;
11498;SDS011;5806;48.748;9.278;2023-07-31T14:39:07;3.50;;;2.40;;
11498;SDS011;5806;48.748;9.278;2023-07-31T14:41:34;3.33;;;2.20;;
11498;SDS011;5806;48.748;9.278;2023-07-31T14:44:01;3.93;;;2.17;;
11498;SDS011;5806;48.748;9.278;2023-07-31T14:46:29;3.53;;;2.47;;
11498;SDS011;5806;48.748;9.278;2023-07-31T14:48:56;2.53;;;2.27;;
11498;SDS011;5806;48.748;9.278;2023-07-31T14:51:24;3.47;;;2.20;;
11498;SDS011;5806;48.748;9.278;2023-07-31T14:53:52;3.07;;;2.63;;
11498;SDS011;5806;48.748;9.278;2023-07-31T14:56:19;3.97;;;2.93;;
11498;SDS011;5806;48.748;9.278;2023-07-31T14:58:47;3.33;;;2.50;;
11498;SDS011;5806;48.748;9.278;2023-07-31T15:01:14;3.00;;;2.53;;
11498;SDS011;5806;48.748;9.278;2023-07-31T15:03:41;3.37;;;2.40;;
11498;SDS011;5806;48.748;9.278;2023-07-31T15:06:09;4.83;;;2.63;;
11498;SDS011;5806;48.748;9.278;2023-07-31T15:08:38;3.53;;;2.40;;
11498;SDS011;5806;48.748;9.278;2023-07-31T15:11:07;2.40;;;2.20;;
11498;SDS011;5806;48.748;9.278;2023-07-31T15:13:36;4.13;;;2.70;;
11498;SDS011;5806;48.748;9.278;2023-07-31T15:16:03;2.87;;;2.33;;
11498;SDS011;5806;48.748;9.278;2023-07-31T15:18:31;5.13;;;3.13;;
11498;SDS011;5806;48.748;9.278;2023-07-31T15:20:58;3.33;;;2.73;;
11498;SDS011;5806;48.748;9.278;2023-07-31T15:23:25;3.50;;;2.77;;